createdAt,value
2022-12-15T00:00:23.392Z,28.23
2022-12-15T00:03:30.769Z,27.20
2022-12-15T00:06:19.544Z,30.80
2022-12-15T00:09:08.551Z,28.45
2022-12-15T00:11:59.033Z,28.70
2022-12-15T00:14:45.653Z,27.52
2022-12-15T00:17:32.006Z,28.13
2022-12-15T00:20:18.556Z,29.90
2022-12-15T00:23:05.197Z,25.80
2022-12-15T00:25:52.033Z,28.48
2022-12-15T00:28:38.496Z,28.27
2022-12-15T00:31:25.361Z,26.95
2022-12-15T00:34:11.958Z,27.38
2022-12-15T00:36:58.361Z,28.77
2022-12-15T00:39:26.153Z,27.55
2022-12-15T00:41:54.132Z,26.88
2022-12-15T00:44:23.275Z,27.92
2022-12-15T00:46:57.323Z,27.58
2022-12-15T00:49:52.638Z,28.33
2022-12-15T00:52:39.269Z,26.70
2022-12-15T00:55:26.079Z,28.67
2022-12-15T00:58:13.174Z,27.13
2022-12-15T01:00:59.853Z,26.90
2022-12-15T01:03:46.338Z,28.25
2022-12-15T01:06:35.733Z,26.90
2022-12-15T01:09:23.495Z,27.95
2022-12-15T01:12:10.150Z,28.77
2022-12-15T01:14:57.296Z,28.25
2022-12-15T01:17:43.847Z,29.55
2022-12-15T01:20:18.310Z,29.35
2022-12-15T01:22:50.538Z,28.63
2022-12-15T01:25:20.827Z,29.70
2022-12-15T01:27:49.275Z,28.38
2022-12-15T01:30:24.558Z,28.42
2022-12-15T01:32:53.130Z,29.08
2022-12-15T01:35:21.904Z,28.17
2022-12-15T01:37:49.897Z,28.58
2022-12-15T01:40:39.770Z,27.50
2022-12-15T01:43:13.996Z,28.63
2022-12-15T01:46:16.065Z,26.80
2022-12-15T01:48:59.223Z,26.00
2022-12-15T01:51:37.502Z,28.83
2022-12-15T01:54:23.562Z,27.90
2022-12-15T01:56:56.890Z,25.48
2022-12-15T01:59:33.136Z,21.38
2022-12-15T02:02:02.279Z,27.13
2022-12-15T02:04:31.268Z,28.10
2022-12-15T02:06:59.385Z,25.50
2022-12-15T02:09:28.470Z,26.00
2022-12-15T02:12:07.242Z,27.63
2022-12-15T02:15:03.214Z,26.45
2022-12-15T02:17:40.296Z,26.33
2022-12-15T02:20:23.580Z,26.98
2022-12-15T02:23:12.440Z,26.85
2022-12-15T02:26:17.264Z,26.80
2022-12-15T02:28:59.326Z,25.75
2022-12-15T02:31:50.151Z,25.38
2022-12-15T02:34:53.886Z,26.52
2022-12-15T02:37:32.664Z,27.10
2022-12-15T02:40:00.972Z,26.40
2022-12-15T02:42:32.084Z,26.90
2022-12-15T02:44:59.981Z,27.27
2022-12-15T02:48:01.244Z,27.48
2022-12-15T02:50:51.546Z,27.23
2022-12-15T02:53:50.825Z,27.10
2022-12-15T02:56:40.078Z,26.92
2022-12-15T02:59:25.485Z,26.77
2022-12-15T03:01:58.496Z,26.48
2022-12-15T03:04:27.481Z,27.33
2022-12-15T03:07:01.243Z,28.42
2022-12-15T03:09:32.607Z,28.40
2022-12-15T03:12:00.823Z,28.08
2022-12-15T03:14:28.793Z,28.98
2022-12-15T03:16:56.822Z,27.27
2022-12-15T03:19:25.924Z,28.67
2022-12-15T03:21:53.913Z,27.05
2022-12-15T03:24:21.632Z,30.30
2022-12-15T03:26:50.220Z,27.95
2022-12-15T03:29:18.840Z,27.10
2022-12-15T03:31:49.882Z,29.00
2022-12-15T03:34:18.189Z,28.77
2022-12-15T03:36:46.562Z,27.48
2022-12-15T03:39:14.671Z,28.20
2022-12-15T03:41:42.915Z,28.45
2022-12-15T03:44:10.639Z,28.92
2022-12-15T03:46:38.861Z,28.60
2022-12-15T03:49:07.120Z,29.85
2022-12-15T03:51:35.367Z,28.17
2022-12-15T03:54:03.047Z,28.92
2022-12-15T03:56:31.094Z,29.13
2022-12-15T03:58:58.867Z,27.60
2022-12-15T04:01:31.553Z,28.90
2022-12-15T04:04:01.172Z,28.85
2022-12-15T04:06:30.993Z,29.55
2022-12-15T04:08:58.872Z,28.58
2022-12-15T04:11:26.846Z,28.63
2022-12-15T04:13:54.591Z,29.63
2022-12-15T04:16:22.636Z,30.08
2022-12-15T04:19:10.370Z,29.38
2022-12-15T04:21:38.336Z,27.80
2022-12-15T04:24:25.261Z,29.73
2022-12-15T04:27:11.877Z,31.10
2022-12-15T04:29:58.014Z,31.73
2022-12-15T04:32:44.783Z,32.58
2022-12-15T04:35:36.565Z,31.67
2022-12-15T04:38:22.974Z,31.58
2022-12-15T04:41:09.316Z,31.58
2022-12-15T04:43:56.227Z,32.67
2022-12-15T04:46:42.450Z,31.77
2022-12-15T04:49:28.861Z,31.13
2022-12-15T04:52:16.135Z,29.80
2022-12-15T04:55:02.554Z,30.92
2022-12-15T04:57:48.978Z,30.90
2022-12-15T05:00:35.631Z,30.48
2022-12-15T05:03:26.578Z,30.60
2022-12-15T05:06:12.999Z,29.75
2022-12-15T05:08:59.482Z,30.77
2022-12-15T05:11:46.076Z,30.75
2022-12-15T05:14:32.422Z,32.35
2022-12-15T05:17:19.008Z,31.85
2022-12-15T05:20:05.446Z,33.97
2022-12-15T05:22:52.160Z,31.98
2022-12-15T05:25:38.837Z,31.55
2022-12-15T05:28:25.904Z,31.83
2022-12-15T05:31:12.424Z,32.80
2022-12-15T05:33:40.709Z,30.50
2022-12-15T05:36:08.807Z,28.88
2022-12-15T05:38:36.973Z,32.38
2022-12-15T05:41:04.687Z,30.75
2022-12-15T05:43:32.961Z,32.35
2022-12-15T05:46:05.278Z,42.20
2022-12-15T05:48:33.406Z,30.48
2022-12-15T05:51:11.181Z,31.50
2022-12-15T05:53:41.001Z,29.98
2022-12-15T05:56:11.810Z,30.25
2022-12-15T05:58:45.153Z,29.45
2022-12-15T06:03:42.933Z,28.67
2022-12-15T06:06:12.504Z,31.20
2022-12-15T06:08:42.456Z,30.80
2022-12-15T06:11:15.439Z,30.13
2022-12-15T06:13:44.331Z,30.60
2022-12-15T06:16:15.272Z,30.92
2022-12-15T06:18:50.131Z,31.52
2022-12-15T06:21:21.354Z,31.50
2022-12-15T06:23:49.977Z,31.98
2022-12-15T06:26:26.985Z,31.60
2022-12-15T06:28:57.304Z,31.45
2022-12-15T06:31:26.126Z,31.88
2022-12-15T06:34:01.254Z,31.67
2022-12-15T06:36:31.081Z,32.80
2022-12-15T06:39:01.206Z,32.60
2022-12-15T06:41:30.621Z,32.35
2022-12-15T06:44:00.192Z,32.45
2022-12-15T06:46:30.294Z,33.60
2022-12-15T06:48:59.193Z,32.60
2022-12-15T06:51:28.056Z,31.10
2022-12-15T06:53:56.578Z,32.67
2022-12-15T06:56:38.910Z,34.38
2022-12-15T06:59:08.567Z,33.65
2022-12-15T07:01:36.776Z,31.35
2022-12-15T07:04:05.753Z,32.13
2022-12-15T07:06:38.485Z,32.58
2022-12-15T07:09:12.732Z,23.92
2022-12-15T07:11:40.682Z,33.28
2022-12-15T07:14:09.285Z,32.70
2022-12-15T07:16:37.134Z,32.58
2022-12-15T07:19:05.197Z,33.92
2022-12-15T07:21:33.034Z,31.83
2022-12-15T07:24:01.956Z,33.13
2022-12-15T07:26:30.633Z,35.38
2022-12-15T07:28:58.649Z,35.20
2022-12-15T07:31:26.393Z,35.65
2022-12-15T07:33:54.799Z,33.85
2022-12-15T07:36:22.831Z,34.75
2022-12-15T07:38:51.589Z,34.53
2022-12-15T07:41:20.605Z,36.35
2022-12-15T07:43:48.775Z,37.30
2022-12-15T07:46:18.230Z,35.58
2022-12-15T07:48:50.227Z,35.83
2022-12-15T07:51:22.770Z,35.85
2022-12-15T07:53:51.369Z,39.08
2022-12-15T07:56:20.489Z,38.78
2022-12-15T07:58:48.920Z,37.78
2022-12-15T08:01:17.191Z,37.00
2022-12-15T08:03:45.481Z,37.17
2022-12-15T08:06:15.139Z,37.80
2022-12-15T08:08:50.448Z,39.08
2022-12-15T08:11:23.071Z,37.90
2022-12-15T08:14:10.568Z,37.75
2022-12-15T08:16:39.793Z,36.40
2022-12-15T08:19:11.146Z,36.65
2022-12-15T08:21:40.665Z,37.38
2022-12-15T08:24:09.731Z,37.83
2022-12-15T08:26:38.388Z,37.30
2022-12-15T08:31:56.011Z,37.45
2022-12-15T08:34:24.033Z,38.33
2022-12-15T08:36:51.819Z,36.22
2022-12-15T08:39:20.519Z,35.90
2022-12-15T08:41:48.237Z,34.85
2022-12-15T08:44:19.370Z,34.28
2022-12-15T08:46:47.129Z,33.08
2022-12-15T08:49:21.144Z,35.47
2022-12-15T08:51:50.700Z,33.42
2022-12-15T08:54:20.668Z,27.83
2022-12-15T08:56:48.785Z,23.25
2022-12-15T08:59:17.152Z,21.98
2022-12-15T09:01:45.102Z,21.33
2022-12-15T09:04:13.528Z,24.48
2022-12-15T09:06:41.784Z,25.10
2022-12-15T09:09:13.209Z,23.48
2022-12-15T09:11:40.986Z,23.88
2022-12-15T09:14:09.018Z,24.48
2022-12-15T09:16:36.937Z,32.17
2022-12-15T09:19:05.221Z,27.25
2022-12-15T09:21:32.950Z,25.70
2022-12-15T09:24:02.381Z,29.10
2022-12-15T09:26:33.078Z,26.73
2022-12-15T09:29:04.741Z,27.63
2022-12-15T09:31:37.318Z,26.92
2022-12-15T09:34:05.379Z,22.40
2022-12-15T09:36:34.247Z,27.23
2022-12-15T09:39:03.107Z,25.67
2022-12-15T09:41:34.766Z,27.00
2022-12-15T09:44:17.543Z,25.45
2022-12-15T09:47:28.604Z,22.30
2022-12-15T09:50:00.054Z,23.75
2022-12-15T09:52:56.821Z,21.45
2022-12-15T09:55:30.412Z,21.58
2022-12-15T09:58:18.851Z,23.17
2022-12-15T10:01:13.291Z,26.27
2022-12-15T10:03:50.613Z,25.13
2022-12-15T10:06:22.699Z,25.88
2022-12-15T10:09:02.365Z,27.10
2022-12-15T10:11:33.127Z,27.67
2022-12-15T10:14:24.566Z,27.23
2022-12-15T10:17:26.243Z,27.42
2022-12-15T10:20:18.469Z,27.30
2022-12-15T10:22:50.155Z,27.55
2022-12-15T10:25:30.482Z,27.23
2022-12-15T10:27:58.760Z,29.70
2022-12-15T10:30:26.899Z,33.13
2022-12-15T10:33:10.657Z,32.05
2022-12-15T10:35:40.523Z,32.65
2022-12-15T10:38:25.356Z,35.80
2022-12-15T10:40:56.863Z,35.83
2022-12-15T10:43:41.016Z,37.08
2022-12-15T10:49:09.095Z,37.33
2022-12-15T10:51:50.363Z,27.83
2022-12-15T10:54:19.122Z,35.10
2022-12-15T10:56:53.742Z,34.97
2022-12-15T10:59:31.781Z,33.63
2022-12-15T11:02:25.491Z,34.05
2022-12-15T11:04:58.298Z,35.17
2022-12-15T11:07:41.674Z,35.88
2022-12-15T11:10:15.907Z,35.72
2022-12-15T11:13:00.918Z,40.63
2022-12-15T11:15:31.934Z,48.72
2022-12-15T11:18:15.961Z,40.38
2022-12-15T11:21:11.556Z,36.10
2022-12-15T11:24:02.003Z,40.78
2022-12-15T11:26:54.743Z,38.03
2022-12-15T11:29:55.618Z,35.08
2022-12-15T11:32:32.174Z,30.10
2022-12-15T11:35:00.638Z,37.88
2022-12-15T11:37:52.738Z,34.83
2022-12-15T11:40:30.750Z,33.85
2022-12-15T11:43:18.976Z,37.35
2022-12-15T11:46:07.352Z,40.45
2022-12-15T11:49:13.812Z,33.33
2022-12-15T11:52:06.364Z,37.30
2022-12-15T11:54:49.872Z,38.85
2022-12-15T12:00:15.867Z,39.10
2022-12-15T12:03:01.084Z,34.60
2022-12-15T12:05:58.495Z,36.03
2022-12-15T12:08:44.462Z,35.42
2022-12-15T12:11:51.244Z,36.13
2022-12-15T12:14:54.068Z,35.80
2022-12-15T12:17:45.364Z,38.83
2022-12-15T12:20:25.953Z,42.03
2022-12-15T12:23:00.014Z,38.03
2022-12-15T12:25:30.004Z,40.55
2022-12-15T12:28:00.828Z,41.97
2022-12-15T12:30:45.796Z,44.00
2022-12-15T12:33:41.184Z,43.72
2022-12-15T12:36:14.384Z,43.33
2022-12-15T12:38:52.238Z,42.75
2022-12-15T12:41:22.739Z,44.00
2022-12-15T12:43:58.186Z,43.38
2022-12-15T12:46:49.015Z,43.42
2022-12-15T12:49:56.480Z,42.33
2022-12-15T12:52:37.040Z,41.25
2022-12-15T12:55:14.842Z,40.47
2022-12-15T12:57:43.930Z,40.53
2022-12-15T13:00:20.953Z,40.55
2022-12-15T13:03:10.972Z,38.67
2022-12-15T13:05:40.878Z,40.10
2022-12-15T13:08:08.813Z,48.88
2022-12-15T13:10:41.781Z,42.40
2022-12-15T13:13:15.408Z,36.70
2022-12-15T13:15:50.923Z,39.88
2022-12-15T13:18:24.671Z,40.33
2022-12-15T13:20:57.164Z,40.10
2022-12-15T13:23:24.811Z,39.88
2022-12-15T13:25:59.180Z,40.13
2022-12-15T13:28:39.394Z,39.33
2022-12-15T13:31:16.627Z,39.42
2022-12-15T13:33:50.483Z,39.28
2022-12-15T13:36:41.443Z,41.45
2022-12-15T13:39:14.870Z,39.20
2022-12-15T13:44:44.222Z,46.42
2022-12-15T13:47:20.358Z,42.80
2022-12-15T13:50:02.229Z,38.13
2022-12-15T13:53:17.170Z,39.17
2022-12-15T13:56:06.314Z,39.20
2022-12-15T13:58:50.571Z,42.15
2022-12-15T14:01:28.568Z,44.88
2022-12-15T14:04:04.652Z,40.22
2022-12-15T14:06:38.696Z,38.97
2022-12-15T14:09:13.642Z,39.03
2022-12-15T14:14:37.083Z,36.85
2022-12-15T14:17:09.237Z,34.28
2022-12-15T14:19:51.025Z,35.10
2022-12-15T14:22:30.534Z,33.65
2022-12-15T14:25:26.084Z,34.33
2022-12-15T14:27:53.795Z,33.33
2022-12-15T14:30:32.993Z,35.58
2022-12-15T14:33:07.105Z,35.95
2022-12-15T14:35:49.421Z,38.20
2022-12-15T14:38:39.790Z,37.03
2022-12-15T14:41:17.080Z,37.65
2022-12-15T14:43:44.971Z,38.30
2022-12-15T14:46:33.211Z,36.97
2022-12-15T14:49:07.253Z,37.03
2022-12-15T14:51:47.538Z,41.38
2022-12-15T14:54:28.285Z,45.35
2022-12-15T14:57:27.111Z,36.65
2022-12-15T14:59:55.728Z,37.17
2022-12-15T15:02:29.919Z,35.00
2022-12-15T15:03:14.222Z,38.22
2022-12-15T15:05:05.491Z,35.22
2022-12-15T15:07:35.420Z,34.58
2022-12-15T15:10:08.786Z,34.13
2022-12-15T15:12:47.325Z,33.92
2022-12-15T15:15:18.205Z,34.35
2022-12-15T15:17:54.905Z,32.50
2022-12-15T15:20:31.778Z,32.88
2022-12-15T15:23:10.796Z,33.47
2022-12-15T15:25:41.557Z,32.08
2022-12-15T15:28:15.650Z,33.40
2022-12-15T15:33:18.340Z,33.50
2022-12-15T15:35:52.074Z,31.38
2022-12-15T15:38:32.445Z,33.60
2022-12-15T15:41:11.010Z,31.40
2022-12-15T15:43:39.043Z,33.35
2022-12-15T15:46:12.953Z,33.65
2022-12-15T15:48:57.589Z,33.03
2022-12-15T15:51:27.380Z,32.95
2022-12-15T15:54:00.149Z,33.47
2022-12-15T15:56:30.973Z,32.40
2022-12-15T15:59:09.297Z,32.40
2022-12-15T16:01:37.083Z,32.85
2022-12-15T16:04:06.794Z,31.10
2022-12-15T16:06:35.309Z,30.73
2022-12-15T16:09:06.529Z,31.25
2022-12-15T16:11:35.312Z,31.88
2022-12-15T16:14:03.716Z,32.75
2022-12-15T16:16:33.404Z,33.72
2022-12-15T16:19:01.388Z,33.05
2022-12-15T16:21:29.309Z,31.58
2022-12-15T16:23:58.495Z,31.95
2022-12-15T16:26:33.377Z,29.95
2022-12-15T16:29:01.456Z,30.15
2022-12-15T16:31:41.429Z,29.23
2022-12-15T16:34:09.905Z,33.20
2022-12-15T16:36:37.674Z,30.35
2022-12-15T16:39:13.663Z,29.85
2022-12-15T16:41:41.471Z,30.13
2022-12-15T16:44:12.573Z,28.63
2022-12-15T16:46:40.543Z,28.65
2022-12-15T16:49:08.632Z,29.13
2022-12-15T16:51:43.038Z,32.33
2022-12-15T16:54:33.969Z,28.00
2022-12-15T16:57:02.113Z,29.98
2022-12-15T16:59:34.712Z,31.65
2022-12-15T17:02:23.080Z,32.83
2022-12-15T17:04:51.664Z,31.83
2022-12-15T17:07:20.697Z,32.17
2022-12-15T17:09:51.904Z,34.42
2022-12-15T17:12:19.907Z,33.17
2022-12-15T17:14:48.181Z,33.78
2022-12-15T17:17:17.890Z,32.08
2022-12-15T17:20:19.843Z,32.97
2022-12-15T17:22:34.564Z,33.65
2022-12-15T17:25:02.628Z,32.78
2022-12-15T17:27:30.665Z,34.22
2022-12-15T17:30:00.573Z,35.92
2022-12-15T17:32:28.348Z,33.28
2022-12-15T17:34:56.661Z,33.08
2022-12-15T17:37:26.140Z,33.55
2022-12-15T17:39:57.269Z,27.73
2022-12-15T17:42:24.983Z,35.85
2022-12-15T17:44:52.999Z,35.58
2022-12-15T17:47:20.995Z,36.88
2022-12-15T17:49:48.934Z,36.95
2022-12-15T17:52:27.325Z,37.95
2022-12-15T17:54:56.578Z,36.53
2022-12-15T17:57:24.716Z,37.25
2022-12-15T17:59:52.821Z,35.05
2022-12-15T18:02:20.731Z,33.97
2022-12-15T18:04:49.119Z,34.40
2022-12-15T18:07:22.774Z,35.00
2022-12-15T18:09:52.998Z,34.55
2022-12-15T18:12:24.393Z,38.33
2022-12-15T18:14:53.212Z,36.20
2022-12-15T18:17:21.723Z,37.05
2022-12-15T18:19:49.887Z,43.22
2022-12-15T18:22:23.782Z,45.63
2022-12-15T18:24:53.675Z,43.45
2022-12-15T18:27:27.520Z,40.63
2022-12-15T18:29:56.907Z,38.45
2022-12-15T18:32:27.181Z,36.25
2022-12-15T18:34:55.910Z,36.58
2022-12-15T18:37:25.373Z,34.85
2022-12-15T18:39:53.524Z,34.10
2022-12-15T18:42:23.187Z,32.95
2022-12-15T18:44:53.066Z,36.88
2022-12-15T18:47:23.079Z,34.50
2022-12-15T18:49:51.812Z,42.63
2022-12-15T18:52:22.795Z,41.95
2022-12-15T18:54:53.246Z,34.35
2022-12-15T18:57:37.894Z,35.85
2022-12-15T19:00:25.601Z,34.40
2022-12-15T19:02:55.407Z,35.72
2022-12-15T19:05:29.994Z,40.20
2022-12-15T19:08:24.779Z,38.70
2022-12-15T19:10:55.879Z,38.33
2022-12-15T19:13:31.469Z,37.63
2022-12-15T19:16:01.446Z,37.65
2022-12-15T19:18:47.999Z,37.88
2022-12-15T19:21:37.444Z,35.53
2022-12-15T19:24:09.655Z,34.17
2022-12-15T19:26:40.313Z,36.63
2022-12-15T19:29:15.207Z,35.80
2022-12-15T19:31:43.655Z,38.03
2022-12-15T19:34:11.550Z,37.20
2022-12-15T19:36:40.003Z,39.35
2022-12-15T19:39:18.197Z,38.38
2022-12-15T19:41:46.441Z,34.88
2022-12-15T19:44:17.580Z,34.10
2022-12-15T19:46:45.752Z,34.78
2022-12-15T19:49:14.437Z,35.38
2022-12-15T19:51:43.530Z,35.38
2022-12-15T19:54:18.001Z,35.33
2022-12-15T19:56:46.099Z,36.80
2022-12-15T19:59:28.222Z,37.67
2022-12-15T20:01:56.488Z,34.67
2022-12-15T20:04:24.693Z,34.97
2022-12-15T20:06:52.849Z,35.35
2022-12-15T20:09:20.663Z,32.25
2022-12-15T20:11:48.673Z,33.38
2022-12-15T20:14:18.132Z,31.75
2022-12-15T20:16:46.477Z,31.45
2022-12-15T20:19:14.260Z,30.52
2022-12-15T20:21:42.662Z,32.80
2022-12-15T20:24:16.774Z,33.58
2022-12-15T20:26:46.000Z,36.33
2022-12-15T20:29:24.976Z,37.05
2022-12-15T20:31:53.247Z,37.92
2022-12-15T20:34:22.152Z,37.25
2022-12-15T20:36:50.577Z,37.25
2022-12-15T20:39:29.299Z,38.50
2022-12-15T20:41:58.013Z,34.35
2022-12-15T20:44:25.798Z,30.15
2022-12-15T20:46:54.673Z,31.05
2022-12-15T20:49:23.950Z,34.35
2022-12-15T20:51:52.524Z,34.80
2022-12-15T20:54:22.486Z,32.25
2022-12-15T20:56:51.090Z,33.40
2022-12-15T20:59:19.005Z,31.60
2022-12-15T21:01:47.449Z,31.45
2022-12-15T21:04:21.514Z,32.78
2022-12-15T21:06:54.442Z,32.38
2022-12-15T21:09:23.722Z,31.83
2022-12-15T21:11:54.610Z,32.00
2022-12-15T21:14:23.996Z,32.53
2022-12-15T21:16:52.578Z,34.15
2022-12-15T21:19:22.037Z,34.03
2022-12-15T21:21:54.995Z,33.80
2022-12-15T21:24:28.612Z,34.85
2022-12-15T21:26:57.120Z,32.67
2022-12-15T21:29:27.997Z,35.08
2022-12-15T21:31:56.229Z,33.50
2022-12-15T21:34:23.913Z,36.97
2022-12-15T21:36:55.076Z,35.92
2022-12-15T21:39:30.159Z,37.45
2022-12-15T21:42:14.264Z,35.50
2022-12-15T21:44:42.025Z,35.17
2022-12-15T21:47:49.396Z,37.10
2022-12-15T21:50:18.426Z,38.45
2022-12-15T21:52:47.495Z,40.40
2022-12-15T21:55:21.363Z,41.03
2022-12-15T21:57:49.937Z,40.47
2022-12-15T22:00:21.282Z,40.40
2022-12-15T22:02:51.534Z,35.45
2022-12-15T22:05:23.984Z,38.03
2022-12-15T22:07:52.340Z,36.80
2022-12-15T22:10:20.113Z,37.20
2022-12-15T22:12:59.056Z,39.13
2022-12-15T22:15:28.801Z,36.13
2022-12-15T22:17:56.909Z,35.45
2022-12-15T22:20:25.530Z,37.83
2022-12-15T22:22:53.604Z,35.92
2022-12-15T22:25:24.722Z,36.53
2022-12-15T22:27:52.978Z,35.25
2022-12-15T22:30:26.821Z,36.00
2022-12-15T22:32:54.926Z,37.00
2022-12-15T22:35:25.804Z,39.35
2022-12-15T22:37:54.083Z,35.90
2022-12-15T22:40:24.261Z,33.35
2022-12-15T22:42:57.087Z,33.38
2022-12-15T22:45:25.124Z,35.40
2022-12-15T22:47:53.522Z,34.22
2022-12-15T22:50:26.842Z,36.88
2022-12-15T22:52:55.398Z,35.75
2022-12-15T22:55:24.674Z,35.08
2022-12-15T22:58:01.780Z,34.88
2022-12-15T23:00:29.605Z,34.08
2022-12-15T23:02:58.780Z,33.97
2022-12-15T23:05:26.749Z,34.65
2022-12-15T23:07:54.939Z,34.22
2022-12-15T23:10:41.549Z,35.35
2022-12-15T23:13:09.530Z,38.50
2022-12-15T23:15:55.841Z,42.20
2022-12-15T23:18:23.869Z,40.97
2022-12-15T23:20:51.748Z,42.92
2022-12-15T23:23:19.856Z,45.33
2022-12-15T23:25:47.650Z,46.35
2022-12-15T23:28:15.811Z,46.80
2022-12-15T23:30:47.923Z,45.90
2022-12-15T23:33:16.175Z,38.08
2022-12-15T23:35:44.189Z,38.10
2022-12-15T23:38:13.001Z,39.20
2022-12-15T23:40:52.612Z,37.97
2022-12-15T23:43:22.438Z,37.80
2022-12-15T23:46:16.287Z,35.17
2022-12-15T23:51:15.068Z,36.13
2022-12-15T23:53:44.803Z,37.95
2022-12-15T23:56:14.133Z,34.35
2022-12-15T23:58:45.040Z,36.78
